Latest Weather Observations for Cocos Island

IDW60801

Issued at 12:32 pm WST Friday 31 July 2015 (issued every 30 minutes, with the page automatically refreshed every 10 minutes)

About weather observations | Map of weather stations | Latest weather observations for WA | Other Formats
Station Details ID: 200284 Name: COCOS ISLAND AIRPORT Lat: -12.19 Lon: 96.83 Height: 3.0 m
Data from the previous 72 hours. | See also: Recent months at Cocos Island
Date/Time
WST
Temp
°C
App
Temp
°C
Dew
Point
Rel
Hum
%
Delta-T
°C
Wind Press
QNH
hPa
Press
MSL
hPa
Rain
since 9 am
mm
Dir
 
Spd
km/h
Gust
km/h
Spd
kts
Gust
kts
31/12:00pm 28.5 28.4 22.3 69 4.2 E 26 35 14 19 1015.1 - 0.0
31/11:30am 28.3 27.6 22.5 71 3.9 E 30 35 16 19 1015.4 - 0.0
31/11:00am 28.1 28.2 22.5 71 3.8 E 26 33 14 18 1015.4 1015.4 1.0
31/10:30am 28.0 28.4 22.4 71 3.8 E 24 32 13 17 1015.4 - 1.0
31/10:00am 27.6 27.6 22.4 73 3.5 E 26 33 14 18 1015.2 - 1.0
31/09:30am 27.5 27.2 21.8 71 3.8 E 26 32 14 17 1014.8 - 1.0
31/09:00am 26.8 27.6 22.5 77 2.9 E 22 30 12 16 1014.4 - 1.0
31/08:30am 26.7 26.7 21.6 73 3.4 E 24 35 13 19 1014.1 - 1.0
31/08:00am 26.6 26.1 22.1 76 3.0 E 28 33 15 18 1013.8 1013.8 1.0
31/07:30am 26.6 26.4 22.1 76 3.0 E 26 33 14 18 1013.6 - 1.0
31/07:00am 26.5 26.3 22.0 76 3.0 E 26 33 14 18 1013.4 - 1.0
31/06:30am 26.6 26.7 22.6 78 2.7 E 26 33 14 18 1013.3 - 1.0
31/06:00am 26.4 27.6 22.5 79 2.6 E 20 30 11 16 1013.3 - 1.0
31/05:30am 26.5 27.0 22.7 79 2.6 E 24 32 13 17 1013.3 - 1.0
31/05:00am 26.5 27.2 22.3 78 2.8 E 22 30 12 16 1013.3 1013.3 1.0
31/04:30am 26.4 27.1 22.2 78 2.8 E 22 30 12 16 1013.4 - 1.0
31/04:00am 26.4 27.9 22.7 80 2.5 E 19 26 10 14 1013.7 - 1.0
31/03:30am 26.4 27.6 22.5 79 2.6 E 20 28 11 15 1014.0 - 1.0
31/03:00am 26.2 28.0 22.5 80 2.5 ESE 17 26 9 14 1014.3 - 1.0
31/02:30am 25.9 28.1 23.3 85 1.8 ESE 17 22 9 12 1014.5 - 1.0
31/02:00am 24.1 25.3 22.1 88 1.3 SSE 19 22 10 12 1015.0 1015.0 0.2
31/01:30am 25.6 27.0 22.5 83 2.1 E 19 28 10 15 1015.1 - 0.2
31/01:00am 26.5 28.4 22.8 80 2.5 ESE 17 24 9 13 1015.3 - 0.2
31/12:30am 26.5 28.9 23.0 81 2.4 ESE 15 20 8 11 1015.4 - 0.2
31/12:00am 26.6 27.9 22.6 78 2.7 ESE 20 28 11 15 1015.5 - 0.2
 
Date/Time
WST
Temp
°C
App
Temp
°C
Dew
Point
Rel
Hum
%
Delta-T
°C
Wind Press
QNH
hPa
Press
MSL
hPa
Rain
since 9 am
mm
Dir
 
Spd
km/h
Gust
km/h
Spd
kts
Gust
kts
30/11:30pm 26.9 28.0 23.1 80 2.6 ESE 22 32 12 17 1015.5 - 0.2
30/11:00pm 26.8 27.3 22.7 78 2.8 ESE 24 30 13 16 1015.4 1015.4 0.2
30/10:30pm 26.9 27.6 22.9 79 2.7 ESE 24 33 13 18 1015.5 - 0.2
30/10:00pm 26.8 28.3 23.0 79 2.6 ESE 20 26 11 14 1015.1 - 0.2
30/09:30pm 26.7 27.0 23.0 80 2.5 SE 26 33 14 18 1014.9 - 0.2
30/09:00pm 26.8 27.2 23.1 80 2.5 SE 26 32 14 17 1014.8 - 0.2
30/08:30pm 27.2 27.6 23.1 78 2.8 ESE 26 33 14 18 1014.5 - 0.2
30/08:00pm 27.2 27.6 23.1 78 2.8 SE 26 35 14 19 1014.2 1014.2 0.2
30/07:30pm 27.2 27.8 22.8 77 3.0 SE 24 30 13 16 1014.0 - 0.2
30/07:00pm 27.4 28.1 23.0 77 3.0 SE 24 32 13 17 1013.8 - 0.2
30/06:30pm 27.5 27.6 22.5 74 3.4 ESE 26 33 14 18 1013.6 - 0.2
30/06:00pm 27.7 28.3 22.8 74 3.3 SE 24 32 13 17 1013.4 - 0.2
30/05:30pm 28.1 29.3 22.5 71 3.8 ESE 20 28 11 15 1013.3 - 0.2
30/05:00pm 28.1 28.3 22.0 69 4.1 ESE 24 30 13 16 1013.3 1013.3 0.2
30/04:30pm 28.4 28.3 22.3 69 4.1 ESE 26 35 14 19 1013.5 - 0.2
30/04:00pm 28.4 28.9 22.0 68 4.3 ESE 22 30 12 16 1013.6 - 0.2
30/03:30pm 28.2 28.3 21.8 68 4.3 ESE 24 32 13 17 1013.9 - 0.2
30/03:00pm 28.6 29.0 22.4 69 4.2 ESE 24 32 13 17 1014.2 - 0.2
30/02:30pm 28.4 28.2 22.0 68 4.3 ESE 26 35 14 19 1014.6 - 0.2
30/02:00pm 28.7 29.4 22.2 68 4.4 ESE 22 30 12 16 1014.8 1014.8 0.2
30/01:30pm 28.6 28.3 21.9 67 4.5 ESE 26 35 14 19 1015.2 - 0.2
30/01:00pm 28.7 28.9 22.0 67 4.5 ESE 24 32 13 17 1015.5 - 0.2
30/12:30pm 28.9 29.1 22.1 66 4.6 ESE 24 32 13 17 1015.9 - 0.0
30/12:00pm 28.6 29.1 21.9 67 4.5 E 22 32 12 17 1016.1 - 0.0
30/11:30am 28.5 29.4 22.0 68 4.4 ESE 20 28 11 15 1016.3 - 0.0
30/11:00am 28.2 28.8 22.1 69 4.1 E 22 32 12 17 1016.3 1016.3 0.0
30/10:30am 27.9 27.1 20.9 65 4.6 E 26 37 14 20 1016.1 - 0.0
30/10:00am 27.6 28.0 21.8 70 3.9 E 22 28 12 15 1015.9 - 0.0
30/09:30am 26.9 26.9 21.6 72 3.5 E 24 32 13 17 1015.7 - 0.0
30/09:00am 26.7 27.1 21.8 74 3.3 E 22 32 12 17 1015.4 - 0.0
30/08:30am 26.6 26.2 21.0 71 3.7 E 24 32 13 17 1015.1 - 0.0
30/08:00am 26.1 26.3 21.4 75 3.1 E 22 28 12 15 1014.8 1014.8 0.0
30/07:30am 26.2 26.4 21.4 75 3.2 E 22 32 12 17 1014.5 - 0.0
30/07:00am 26.3 25.3 21.2 73 3.4 E 28 35 15 19 1014.1 - 0.0
30/06:30am 26.4 25.3 21.1 72 3.5 E 28 39 15 21 1014.0 - 0.0
30/06:00am 26.3 25.7 21.2 73 3.4 E 26 33 14 18 1013.9 - 0.0
30/05:30am 26.4 25.0 21.1 72 3.5 E 30 37 16 20 1013.8 - 0.0
30/05:00am 26.4 25.2 20.9 72 3.6 E 28 35 15 19 1013.8 1013.8 0.0
30/04:30am 26.5 26.9 21.7 75 3.2 E 22 30 12 16 1013.9 - 0.0
30/04:00am 26.4 26.1 21.8 76 3.1 E 26 33 14 18 1014.1 - 0.0
30/03:30am 26.5 26.6 21.9 76 3.1 E 24 33 13 18 1014.2 - 0.0
30/03:00am 26.6 26.5 21.5 73 3.4 E 24 32 13 17 1014.5 - 0.0
30/02:30am 26.5 27.4 22.0 76 3.0 E 20 30 11 16 1014.7 - 0.0
30/02:00am 26.5 28.3 22.6 79 2.6 E 17 26 9 14 1015.1 1015.1 0.0
30/01:30am 26.6 27.4 21.8 75 3.2 ESE 20 28 11 15 1015.3 - 0.0
30/01:00am 26.6 27.7 22.0 76 3.1 ESE 19 30 10 16 1015.5 - 0.0
30/12:30am 26.5 27.6 21.9 76 3.1 ESE 19 28 10 15 1015.4 - 0.0
30/12:00am 26.6 27.5 21.5 73 3.4 ESE 19 26 10 14 1015.4 - 0.0
 
Date/Time
WST
Temp
°C
App
Temp
°C
Dew
Point
Rel
Hum
%
Delta-T
°C
Wind Press
QNH
hPa
Press
MSL
hPa
Rain
since 9 am
mm
Dir
 
Spd
km/h
Gust
km/h
Spd
kts
Gust
kts
29/11:30pm 26.6 27.3 21.6 74 3.3 ESE 20 28 11 15 1015.5 - 0.0
29/11:00pm 26.7 27.4 21.6 73 3.4 ESE 20 28 11 15 1015.5 1015.5 0.0
29/10:30pm 26.7 27.3 21.1 71 3.7 ESE 19 26 10 14 1015.4 - 0.0
29/10:00pm 26.8 27.7 21.9 74 3.3 E 20 32 11 17 1015.2 - 0.0
29/09:30pm 26.9 26.9 21.7 73 3.5 ESE 24 32 13 17 1014.8 - 0.0
29/09:00pm 27.1 27.3 21.4 71 3.8 ESE 22 32 12 17 1014.5 - 0.0
29/08:30pm 27.1 27.2 21.9 73 3.5 ESE 24 32 13 17 1013.9 - 0.0
29/08:00pm 27.1 28.1 22.2 74 3.3 E 20 30 11 16 1013.6 1013.6 0.0
29/07:30pm 27.1 28.2 21.9 73 3.5 ESE 19 28 10 15 1013.3 - 0.0
29/07:00pm 27.5 28.5 21.7 70 3.9 ESE 19 26 10 14 1012.9 - 0.0
29/06:30pm 27.8 28.6 21.7 69 4.1 E 20 30 11 16 1012.9 - 0.0
29/06:00pm 28.3 29.1 22.5 71 3.9 E 22 30 12 16 1012.8 - 0.0
29/05:30pm 28.4 29.1 22.2 69 4.2 E 22 30 12 16 1012.7 - 0.0
29/05:00pm 27.9 27.9 23.1 75 3.3 E 28 37 15 20 1012.6 1012.6 0.0
29/04:30pm 28.6 28.4 22.7 70 4.0 E 28 35 15 19 1012.6 - 0.0
29/04:00pm 28.7 28.9 22.8 70 4.0 E 26 37 14 20 1012.8 - 0.0
29/03:30pm 28.9 29.2 23.0 70 4.0 E 26 33 14 18 1013.3 - 0.0
29/03:00pm 29.0 30.0 23.5 72 3.8 E 24 33 13 18 1013.6 - 0.0
29/02:30pm 29.1 29.0 22.9 69 4.2 E 28 37 15 20 1014.0 - 0.0
29/02:00pm 28.8 28.0 23.1 71 3.9 E 32 39 17 21 1014.2 1014.2 0.0
29/01:30pm 28.9 27.9 22.7 69 4.2 E 32 39 17 21 1014.7 - 0.0
29/01:00pm 28.4 29.1 23.0 72 3.7 ESE 24 32 13 17 1015.0 - 0.0
29/12:30pm 28.7 29.7 23.5 73 3.6 E 24 33 13 18 1015.1 - 0.0
29/12:00pm 28.5 29.0 22.6 70 4.0 E 24 33 13 18 1015.3 - 0.0
29/11:30am 28.8 30.6 23.6 73 3.6 ESE 20 30 11 16 1015.5 - 0.0
29/11:00am 28.2 29.2 22.8 72 3.7 E 22 30 12 16 1015.6 1015.6 0.2
29/10:30am 27.5 28.8 22.6 74 3.3 ESE 20 28 11 15 1015.7 - 0.2
29/10:00am 27.3 28.4 22.4 74 3.3 E 20 28 11 15 1015.8 - 0.2
29/09:30am 27.0 28.4 22.6 77 3.0 E 19 26 10 14 1015.6 - 0.2
29/09:00am 26.5 27.4 21.9 76 3.1 E 20 28 11 15 1015.3 - 0.2
29/08:30am 26.2 27.1 22.0 77 2.8 E 20 28 11 15 1014.9 - 0.2
29/08:00am 25.9 27.0 22.0 79 2.6 E 19 24 10 13 1014.5 1014.5 0.2
29/07:30am 25.9 27.0 22.0 79 2.6 E 19 24 10 13 1014.0 - 0.2
29/07:00am 25.9 27.0 21.9 78 2.7 E 19 24 10 13 1014.0 - 0.2
29/06:30am 26.0 27.1 22.0 78 2.7 E 19 28 10 15 1013.8 - 0.2
29/06:00am 26.1 26.3 22.1 78 2.7 E 24 32 13 17 1013.7 - 0.2
29/05:30am 26.2 27.1 22.0 77 2.8 E 20 28 11 15 1013.7 - 0.2
29/05:00am 26.1 26.4 21.6 76 3.0 E 22 30 12 16 1013.8 1013.8 0.2
29/04:30am 26.3 26.5 21.3 74 3.3 E 22 28 12 15 1014.2 - 0.2
29/04:00am 26.2 27.2 21.0 73 3.4 E 17 24 9 13 1014.5 - 0.2
29/03:30am 26.3 27.0 21.6 75 3.1 E 20 24 11 13 1014.7 - 0.2
29/03:00am 26.4 27.0 22.1 77 2.9 E 22 30 12 16 1014.9 - 0.2
29/02:30am 26.5 26.9 21.7 75 3.2 E 22 30 12 16 1015.1 - 0.2
29/02:00am 26.3 27.6 22.3 78 2.7 E 19 28 10 15 1015.3 1015.3 0.2
29/01:30am 26.4 27.6 22.5 79 2.6 E 20 26 11 14 1015.7 - 0.2
29/01:00am 26.3 27.3 22.1 77 2.8 E 20 26 11 14 1015.8 - 0.2
29/12:30am 26.4 27.2 21.7 75 3.1 E 20 26 11 14 1016.2 - 0.2
29/12:00am 26.4 27.5 21.9 76 3.0 E 19 26 10 14 1016.3 - 0.2
 
Date/Time
WST
Temp
°C
App
Temp
°C
Dew
Point
Rel
Hum
%
Delta-T
°C
Wind Press
QNH
hPa
Press
MSL
hPa
Rain
since 9 am
mm
Dir
 
Spd
km/h
Gust
km/h
Spd
kts
Gust
kts
28/11:30pm 26.4 27.5 21.9 76 3.0 E 19 24 10 13 1016.2 - 0.2
28/11:00pm 26.3 28.5 21.8 76 3.0 E 13 22 7 12 1016.4 1016.4 0.2
28/10:30pm 26.5 27.5 21.7 75 3.2 E 19 24 10 13 1016.2 - 0.2
28/10:00pm 26.5 27.6 22.0 76 3.0 E 19 26 10 14 1016.1 - 0.2
28/09:30pm 26.6 27.5 22.0 76 3.1 E 20 26 11 14 1015.9 - 0.0
28/09:00pm 26.7 27.8 22.4 77 2.9 E 20 26 11 14 1015.5 - 0.0
28/08:30pm 26.8 28.0 22.5 77 2.9 E 20 28 11 15 1015.2 - 0.0
28/08:00pm 26.9 28.3 22.9 79 2.7 E 20 26 11 14 1014.9 1014.9 0.0
28/07:30pm 26.9 28.2 22.6 77 2.9 E 20 26 11 14 1014.6 - 0.0
28/07:00pm 27.0 28.3 22.7 77 2.9 E 20 30 11 16 1014.5 - 0.0
28/06:30pm 27.1 28.2 23.0 78 2.8 E 22 30 12 16 1014.4 - 0.0
28/06:00pm 27.8 28.7 22.6 73 3.5 ESE 22 28 12 15 1014.3 - 0.0
28/05:30pm 27.7 29.1 22.5 73 3.5 ESE 19 26 10 14 1014.1 - 0.0
28/05:00pm 27.8 29.1 22.6 73 3.5 ESE 20 28 11 15 1013.9 1013.9 0.0
28/04:30pm 28.1 29.4 23.3 75 3.3 ESE 22 32 12 17 1013.9 - 0.0
28/04:00pm 28.2 28.8 22.8 72 3.7 ESE 24 30 13 16 1013.9 - 0.0
28/03:30pm 28.5 28.4 22.3 69 4.2 ESE 26 33 14 18 1014.2 - 0.0
28/03:00pm 28.9 29.9 22.9 70 4.1 ESE 22 32 12 17 1014.8 - 0.0
28/02:30pm 28.2 28.7 21.9 68 4.2 ESE 22 32 12 17 1015.1 - 0.0

Other Formats:

Comma delimited format used in spreadsheet applications
http://www.bom.gov.au/fwo/IDW60801/IDW60801.96996.axf

JavaScript Object Notation format (JSON) in row-major order
http://www.bom.gov.au/fwo/IDW60801/IDW60801.96996.json